sensor_id;sensor_type;location;lat;lon;timestamp;pressure;altitude;pressure_sealevel;temperature;humidity
20710;BME280;10516;51.518;9.864;2023-01-25T00:02:12;100774.31;;;1.44;84.95
20710;BME280;10516;51.518;9.864;2023-01-25T00:04:37;100791.22;;;1.32;84.48
20710;BME280;10516;51.518;9.864;2023-01-25T00:07:03;100773.25;;;1.18;85.78
20710;BME280;10516;51.518;9.864;2023-01-25T00:09:28;100783.22;;;0.86;88.99
20710;BME280;10516;51.518;9.864;2023-01-25T00:11:54;100781.50;;;0.18;88.65
20710;BME280;10516;51.518;9.864;2023-01-25T00:14:22;100783.19;;;0.38;89.24
20710;BME280;10516;51.518;9.864;2023-01-25T00:16:47;100772.84;;;0.55;89.47
20710;BME280;10516;51.518;9.864;2023-01-25T00:19:12;100780.19;;;0.71;88.48
20710;BME280;10516;51.518;9.864;2023-01-25T00:21:38;100780.03;;;0.44;87.88
20710;BME280;10516;51.518;9.864;2023-01-25T00:24:05;100791.13;;;0.95;88.82
20710;BME280;10516;51.518;9.864;2023-01-25T00:26:32;100786.19;;;1.48;88.19
20710;BME280;10516;51.518;9.864;2023-01-25T00:28:58;100782.53;;;0.93;86.85
20710;BME280;10516;51.518;9.864;2023-01-25T00:36:45;100779.94;;;1.86;86.84
20710;BME280;10516;51.518;9.864;2023-01-25T00:39:12;100772.53;;;1.25;85.52
20710;BME280;10516;51.518;9.864;2023-01-25T00:41:38;100763.31;;;0.45;88.14
20710;BME280;10516;51.518;9.864;2023-01-25T00:44:03;100764.72;;;0.58;89.40
20710;BME280;10516;51.518;9.864;2023-01-25T00:46:29;100768.41;;;1.13;88.98
20710;BME280;10516;51.518;9.864;2023-01-25T00:48:54;100747.00;;;0.41;87.60
20710;BME280;10516;51.518;9.864;2023-01-25T00:51:21;100745.78;;;0.74;90.75
20710;BME280;10516;51.518;9.864;2023-01-25T00:53:46;100752.13;;;1.46;87.56
20710;BME280;10516;51.518;9.864;2023-01-25T00:56:12;100752.06;;;1.29;86.37
20710;BME280;10516;51.518;9.864;2023-01-25T00:58:37;100745.31;;;0.88;86.80
20710;BME280;10516;51.518;9.864;2023-01-25T01:01:03;100750.47;;;0.51;87.12
20710;BME280;10516;51.518;9.864;2023-01-25T01:03:28;100731.03;;;-0.05;89.07
20710;BME280;10516;51.518;9.864;2023-01-25T01:06:09;100751.00;;;0.93;89.53
20710;BME280;10516;51.518;9.864;2023-01-25T01:08:38;100738.41;;;0.30;88.24
20710;BME280;10516;51.518;9.864;2023-01-25T01:11:06;100748.19;;;0.09;89.65
20710;BME280;10516;51.518;9.864;2023-01-25T01:13:32;100746.25;;;1.16;89.25
20710;BME280;10516;51.518;9.864;2023-01-25T01:16:03;100738.28;;;0.60;87.77
20710;BME280;10516;51.518;9.864;2023-01-25T01:18:38;100747.16;;;0.78;87.42
20710;BME280;10516;51.518;9.864;2023-01-25T01:21:04;100749.63;;;0.70;88.22
20710;BME280;10516;51.518;9.864;2023-01-25T01:23:30;100753.78;;;0.82;88.60
20710;BME280;10516;51.518;9.864;2023-01-25T01:26:02;100758.16;;;1.10;88.15
20710;BME280;10516;51.518;9.864;2023-01-25T01:28:31;100739.59;;;1.21;85.95
20710;BME280;10516;51.518;9.864;2023-01-25T01:31:14;100755.91;;;1.25;87.45
20710;BME280;10516;51.518;9.864;2023-01-25T01:33:40;100751.78;;;0.08;87.55
20710;BME280;10516;51.518;9.864;2023-01-25T01:36:07;100754.81;;;0.03;88.76
20710;BME280;10516;51.518;9.864;2023-01-25T01:38:32;100752.53;;;-0.21;89.23
20710;BME280;10516;51.518;9.864;2023-01-25T01:40:57;100751.66;;;-0.61;91.15
20710;BME280;10516;51.518;9.864;2023-01-25T01:43:23;100740.13;;;-0.79;91.74
20710;BME280;10516;51.518;9.864;2023-01-25T01:46:01;100739.75;;;-0.74;92.48
20710;BME280;10516;51.518;9.864;2023-01-25T01:51:17;100730.31;;;-0.17;93.03
20710;BME280;10516;51.518;9.864;2023-01-25T01:53:52;100713.06;;;-0.10;94.40
20710;BME280;10516;51.518;9.864;2023-01-25T01:56:25;100728.19;;;0.36;91.99
20710;BME280;10516;51.518;9.864;2023-01-25T01:58:54;100731.97;;;-0.16;90.88
20710;BME280;10516;51.518;9.864;2023-01-25T02:01:20;100739.81;;;-0.55;91.36
20710;BME280;10516;51.518;9.864;2023-01-25T02:03:47;100739.53;;;-0.52;92.13
20710;BME280;10516;51.518;9.864;2023-01-25T02:06:18;100733.69;;;-0.65;92.11
20710;BME280;10516;51.518;9.864;2023-01-25T02:08:45;100733.72;;;-0.26;92.37
20710;BME280;10516;51.518;9.864;2023-01-25T02:11:11;100719.69;;;-0.06;91.39
20710;BME280;10516;51.518;9.864;2023-01-25T02:13:37;100735.25;;;-0.23;91.83
20710;BME280;10516;51.518;9.864;2023-01-25T02:16:03;100717.97;;;-0.65;91.67
20710;BME280;10516;51.518;9.864;2023-01-25T02:18:30;100722.63;;;0.20;93.92
20710;BME280;10516;51.518;9.864;2023-01-25T02:20:56;100719.59;;;0.06;90.48
20710;BME280;10516;51.518;9.864;2023-01-25T02:23:35;100727.63;;;-0.36;91.15
20710;BME280;10516;51.518;9.864;2023-01-25T02:26:04;100722.56;;;-0.58;92.10
20710;BME280;10516;51.518;9.864;2023-01-25T02:28:38;100734.88;;;-0.79;91.83
20710;BME280;10516;51.518;9.864;2023-01-25T02:31:05;100719.09;;;-0.58;92.15
20710;BME280;10516;51.518;9.864;2023-01-25T02:33:31;100724.97;;;0.14;93.87
20710;BME280;10516;51.518;9.864;2023-01-25T02:38:33;100711.03;;;0.42;91.36
20710;BME280;10516;51.518;9.864;2023-01-25T02:41:05;100705.28;;;-0.70;90.11
20710;BME280;10516;51.518;9.864;2023-01-25T02:43:33;100707.00;;;-0.50;91.00
20710;BME280;10516;51.518;9.864;2023-01-25T02:46:10;100690.59;;;0.26;93.87
20710;BME280;10516;51.518;9.864;2023-01-25T02:48:38;100676.47;;;-0.11;90.91
20710;BME280;10516;51.518;9.864;2023-01-25T02:51:06;100686.69;;;-0.08;91.47
20710;BME280;10516;51.518;9.864;2023-01-25T02:53:32;100675.47;;;-0.20;90.38
20710;BME280;10516;51.518;9.864;2023-01-25T02:55:58;100660.88;;;0.35;91.53
20710;BME280;10516;51.518;9.864;2023-01-25T02:58:23;100677.88;;;0.50;88.36
20710;BME280;10516;51.518;9.864;2023-01-25T03:00:48;100679.53;;;0.42;89.59
20710;BME280;10516;51.518;9.864;2023-01-25T03:03:14;100674.53;;;1.23;89.53
20710;BME280;10516;51.518;9.864;2023-01-25T03:05:39;100669.19;;;1.06;86.90
20710;BME280;10516;51.518;9.864;2023-01-25T03:08:04;100649.44;;;0.92;87.27
20710;BME280;10516;51.518;9.864;2023-01-25T03:10:30;100664.16;;;-0.11;88.92
20710;BME280;10516;51.518;9.864;2023-01-25T03:12:55;100665.41;;;-0.15;89.92
20710;BME280;10516;51.518;9.864;2023-01-25T03:15:20;100640.81;;;-0.04;90.63
20710;BME280;10516;51.518;9.864;2023-01-25T03:17:46;100649.38;;;-0.02;90.29
20710;BME280;10516;51.518;9.864;2023-01-25T03:20:11;100645.25;;;-0.14;90.52
20710;BME280;10516;51.518;9.864;2023-01-25T03:22:37;100648.69;;;0.53;91.74
20710;BME280;10516;51.518;9.864;2023-01-25T03:25:02;100644.94;;;-0.40;89.50
20710;BME280;10516;51.518;9.864;2023-01-25T03:27:29;100648.53;;;-0.22;91.65
20710;BME280;10516;51.518;9.864;2023-01-25T03:29:55;100649.13;;;0.49;92.39
20710;BME280;10516;51.518;9.864;2023-01-25T03:32:21;100626.06;;;-0.05;91.32
20710;BME280;10516;51.518;9.864;2023-01-25T03:34:46;100633.25;;;0.97;88.45
20710;BME280;10516;51.518;9.864;2023-01-25T03:37:12;100636.88;;;1.77;87.30
20710;BME280;10516;51.518;9.864;2023-01-25T03:39:37;100642.97;;;0.77;86.95
20710;BME280;10516;51.518;9.864;2023-01-25T03:42:03;100631.53;;;0.78;87.72
20710;BME280;10516;51.518;9.864;2023-01-25T03:44:28;100626.91;;;1.53;87.26
20710;BME280;10516;51.518;9.864;2023-01-25T03:46:53;100638.34;;;0.52;88.04
20710;BME280;10516;51.518;9.864;2023-01-25T03:49:19;100628.19;;;1.77;86.65
20710;BME280;10516;51.518;9.864;2023-01-25T03:51:44;100632.72;;;0.93;85.71
20710;BME280;10516;51.518;9.864;2023-01-25T03:54:09;100629.44;;;0.82;87.60
20710;BME280;10516;51.518;9.864;2023-01-25T03:56:36;100633.06;;;0.61;87.70
20710;BME280;10516;51.518;9.864;2023-01-25T03:59:02;100632.78;;;0.74;88.48
20710;BME280;10516;51.518;9.864;2023-01-25T04:01:28;100631.88;;;1.29;88.31
20710;BME280;10516;51.518;9.864;2023-01-25T04:03:53;100632.88;;;1.28;87.15
20710;BME280;10516;51.518;9.864;2023-01-25T04:06:18;100629.56;;;2.16;86.00
20710;BME280;10516;51.518;9.864;2023-01-25T04:08:44;100617.78;;;1.93;83.57
20710;BME280;10516;51.518;9.864;2023-01-25T04:11:09;100625.03;;;1.46;84.04
20710;BME280;10516;51.518;9.864;2023-01-25T04:13:36;100643.63;;;2.24;84.60
20710;BME280;10516;51.518;9.864;2023-01-25T04:16:06;100633.31;;;1.96;83.18
20710;BME280;10516;51.518;9.864;2023-01-25T04:18:32;100626.97;;;1.44;83.52
20710;BME280;10516;51.518;9.864;2023-01-25T04:20:58;100637.63;;;1.42;85.61
20710;BME280;10516;51.518;9.864;2023-01-25T04:23:24;100620.19;;;2.04;84.60
20710;BME280;10516;51.518;9.864;2023-01-25T04:25:55;100619.91;;;1.17;83.60
20710;BME280;10516;51.518;9.864;2023-01-25T04:28:21;100621.34;;;1.29;85.84
20710;BME280;10516;51.518;9.864;2023-01-25T04:30:47;100617.66;;;0.11;86.48
20710;BME280;10516;51.518;9.864;2023-01-25T04:33:13;100604.09;;;-0.14;88.23
20710;BME280;10516;51.518;9.864;2023-01-25T04:35:38;100614.44;;;0.07;88.73
20710;BME280;10516;51.518;9.864;2023-01-25T04:38:04;100601.50;;;-0.72;89.57
20710;BME280;10516;51.518;9.864;2023-01-25T04:40:30;100599.47;;;-0.99;91.68
20710;BME280;10516;51.518;9.864;2023-01-25T04:42:56;100596.63;;;0.30;93.54
20710;BME280;10516;51.518;9.864;2023-01-25T04:45:22;100596.91;;;-0.02;88.94
20710;BME280;10516;51.518;9.864;2023-01-25T04:47:49;100598.16;;;0.23;88.33
20710;BME280;10516;51.518;9.864;2023-01-25T04:50:14;100605.47;;;-0.29;88.81
20710;BME280;10516;51.518;9.864;2023-01-25T04:52:40;100592.94;;;-0.65;90.91
20710;BME280;10516;51.518;9.864;2023-01-25T04:55:05;100599.38;;;-0.88;91.08
20710;BME280;10516;51.518;9.864;2023-01-25T04:57:31;100600.25;;;-1.08;92.86
20710;BME280;10516;51.518;9.864;2023-01-25T04:59:56;100597.84;;;-0.51;92.78
20710;BME280;10516;51.518;9.864;2023-01-25T05:02:23;100596.06;;;0.36;91.21
20710;BME280;10516;51.518;9.864;2023-01-25T05:04:48;100594.47;;;1.08;88.22
20710;BME280;10516;51.518;9.864;2023-01-25T05:07:13;100597.03;;;-0.23;89.54
20710;BME280;10516;51.518;9.864;2023-01-25T05:09:39;100591.94;;;-0.24;90.06
20710;BME280;10516;51.518;9.864;2023-01-25T05:12:04;100596.50;;;-0.17;91.03
20710;BME280;10516;51.518;9.864;2023-01-25T05:14:36;100590.44;;;0.02;90.67
20710;BME280;10516;51.518;9.864;2023-01-25T05:17:02;100590.13;;;0.34;92.07
20710;BME280;10516;51.518;9.864;2023-01-25T05:19:27;100580.31;;;0.36;88.57
20710;BME280;10516;51.518;9.864;2023-01-25T05:21:52;100581.56;;;0.32;89.22
20710;BME280;10516;51.518;9.864;2023-01-25T05:24:29;100579.38;;;-0.02;89.42
20710;BME280;10516;51.518;9.864;2023-01-25T05:26:56;100587.59;;;1.25;88.58
20710;BME280;10516;51.518;9.864;2023-01-25T05:29:39;100586.53;;;0.16;88.12
20710;BME280;10516;51.518;9.864;2023-01-25T05:34:32;100583.47;;;1.49;87.87
20710;BME280;10516;51.518;9.864;2023-01-25T05:36:58;100589.66;;;0.94;85.63
20710;BME280;10516;51.518;9.864;2023-01-25T05:39:23;100586.03;;;0.68;87.73
20710;BME280;10516;51.518;9.864;2023-01-25T05:41:49;100574.47;;;1.87;85.91
20710;BME280;10516;51.518;9.864;2023-01-25T05:44:15;100580.75;;;2.12;84.12
20710;BME280;10516;51.518;9.864;2023-01-25T05:46:40;100578.97;;;2.12;82.78
20710;BME280;10516;51.518;9.864;2023-01-25T05:49:06;100569.00;;;1.98;81.86
20710;BME280;10516;51.518;9.864;2023-01-25T05:51:31;100573.03;;;1.93;81.90
20710;BME280;10516;51.518;9.864;2023-01-25T05:53:57;100573.91;;;1.66;83.17
20710;BME280;10516;51.518;9.864;2023-01-25T05:56:23;100571.88;;;1.42;84.14
20710;BME280;10516;51.518;9.864;2023-01-25T05:58:53;100570.25;;;0.77;85.10
20710;BME280;10516;51.518;9.864;2023-01-25T06:01:18;100556.25;;;0.87;86.02
20710;BME280;10516;51.518;9.864;2023-01-25T06:03:44;100567.31;;;1.17;84.09
20710;BME280;10516;51.518;9.864;2023-01-25T06:06:10;100557.47;;;1.19;83.71
20710;BME280;10516;51.518;9.864;2023-01-25T06:08:35;100566.00;;;1.31;83.68
20710;BME280;10516;51.518;9.864;2023-01-25T06:11:08;100557.91;;;1.42;82.93
20710;BME280;10516;51.518;9.864;2023-01-25T06:13:35;100558.47;;;1.36;83.20
20710;BME280;10516;51.518;9.864;2023-01-25T06:16:01;100550.53;;;1.45;82.92
20710;BME280;10516;51.518;9.864;2023-01-25T06:18:32;100549.44;;;1.21;83.27
20710;BME280;10516;51.518;9.864;2023-01-25T06:20:59;100548.19;;;1.42;83.10
20710;BME280;10516;51.518;9.864;2023-01-25T06:23:26;100549.38;;;1.30;82.76
20710;BME280;10516;51.518;9.864;2023-01-25T06:25:52;100553.19;;;1.18;83.17
20710;BME280;10516;51.518;9.864;2023-01-25T06:28:21;100547.19;;;1.26;82.93
20710;BME280;10516;51.518;9.864;2023-01-25T06:30:46;100557.16;;;1.22;82.80
20710;BME280;10516;51.518;9.864;2023-01-25T06:33:12;100547.88;;;1.01;83.47
20710;BME280;10516;51.518;9.864;2023-01-25T06:35:37;100555.13;;;1.16;83.21
20710;BME280;10516;51.518;9.864;2023-01-25T06:38:04;100555.00;;;1.18;83.33
20710;BME280;10516;51.518;9.864;2023-01-25T06:40:30;100557.34;;;0.84;83.57
20710;BME280;10516;51.518;9.864;2023-01-25T06:43:08;100554.34;;;1.06;83.54
20710;BME280;10516;51.518;9.864;2023-01-25T06:45:33;100537.53;;;0.90;84.43
20710;BME280;10516;51.518;9.864;2023-01-25T06:47:59;100548.28;;;0.69;84.91
20710;BME280;10516;51.518;9.864;2023-01-25T06:50:24;100548.75;;;0.92;84.25
20710;BME280;10516;51.518;9.864;2023-01-25T06:52:54;100545.63;;;0.79;84.76
20710;BME280;10516;51.518;9.864;2023-01-25T06:55:20;100548.03;;;0.99;84.81
20710;BME280;10516;51.518;9.864;2023-01-25T06:57:46;100535.72;;;1.00;84.14
20710;BME280;10516;51.518;9.864;2023-01-25T07:00:13;100535.56;;;0.74;84.49
20710;BME280;10516;51.518;9.864;2023-01-25T07:02:38;100525.03;;;1.01;84.52
20710;BME280;10516;51.518;9.864;2023-01-25T07:05:04;100534.56;;;0.75;85.00
20710;BME280;10516;51.518;9.864;2023-01-25T07:07:29;100526.53;;;0.76;85.96
20710;BME280;10516;51.518;9.864;2023-01-25T07:09:55;100531.72;;;0.96;85.43
20710;BME280;10516;51.518;9.864;2023-01-25T07:12:20;100530.72;;;0.69;85.46
20710;BME280;10516;51.518;9.864;2023-01-25T07:14:46;100523.81;;;0.68;86.41
20710;BME280;10516;51.518;9.864;2023-01-25T07:17:13;100531.28;;;1.00;84.99
20710;BME280;10516;51.518;9.864;2023-01-25T07:19:39;100529.00;;;1.15;84.77
20710;BME280;10516;51.518;9.864;2023-01-25T07:22:04;100526.06;;;1.18;84.47
20710;BME280;10516;51.518;9.864;2023-01-25T07:24:29;100512.34;;;1.24;83.79
20710;BME280;10516;51.518;9.864;2023-01-25T07:26:55;100517.09;;;0.84;83.83
20710;BME280;10516;51.518;9.864;2023-01-25T07:29:20;100516.91;;;1.22;84.51
20710;BME280;10516;51.518;9.864;2023-01-25T07:31:46;100528.00;;;1.16;84.70
20710;BME280;10516;51.518;9.864;2023-01-25T07:34:12;100525.03;;;1.01;84.80
20710;BME280;10516;51.518;9.864;2023-01-25T07:36:38;100523.28;;;0.65;84.87
20710;BME280;10516;51.518;9.864;2023-01-25T07:39:05;100518.47;;;0.88;84.53
20710;BME280;10516;51.518;9.864;2023-01-25T07:41:30;100525.28;;;1.08;84.90
20710;BME280;10516;51.518;9.864;2023-01-25T07:43:57;100518.66;;;1.04;84.31
20710;BME280;10516;51.518;9.864;2023-01-25T07:46:23;100519.44;;;1.14;84.27
20710;BME280;10516;51.518;9.864;2023-01-25T07:48:50;100520.50;;;1.21;84.13
20710;BME280;10516;51.518;9.864;2023-01-25T07:51:17;100511.75;;;1.03;83.96
20710;BME280;10516;51.518;9.864;2023-01-25T07:54:00;100525.97;;;1.10;84.12
20710;BME280;10516;51.518;9.864;2023-01-25T07:56:29;100526.31;;;0.14;87.34
20710;BME280;10516;51.518;9.864;2023-01-25T07:58:55;100517.06;;;0.00;86.32
20710;BME280;10516;51.518;9.864;2023-01-25T08:01:23;100528.09;;;0.33;87.04
20710;BME280;10516;51.518;9.864;2023-01-25T08:03:49;100522.78;;;0.52;85.93
20710;BME280;10516;51.518;9.864;2023-01-25T08:06:15;100516.16;;;0.38;87.24
20710;BME280;10516;51.518;9.864;2023-01-25T08:08:46;100532.63;;;0.77;85.87
20710;BME280;10516;51.518;9.864;2023-01-25T08:11:16;100537.75;;;0.32;86.15
20710;BME280;10516;51.518;9.864;2023-01-25T08:13:42;100529.84;;;0.42;87.52
20710;BME280;10516;51.518;9.864;2023-01-25T08:16:14;100517.53;;;0.79;86.03
20710;BME280;10516;51.518;9.864;2023-01-25T08:18:41;100534.56;;;0.29;86.43
20710;BME280;10516;51.518;9.864;2023-01-25T08:21:07;100520.91;;;0.71;86.26
20710;BME280;10516;51.518;9.864;2023-01-25T08:23:32;100525.47;;;0.97;85.19
20710;BME280;10516;51.518;9.864;2023-01-25T08:26:03;100537.00;;;0.49;86.18
20710;BME280;10516;51.518;9.864;2023-01-25T08:28:29;100528.16;;;0.50;86.17
20710;BME280;10516;51.518;9.864;2023-01-25T08:31:02;100538.78;;;0.58;85.40
20710;BME280;10516;51.518;9.864;2023-01-25T08:33:28;100522.63;;;0.44;86.91
20710;BME280;10516;51.518;9.864;2023-01-25T08:35:55;100528.91;;;0.70;84.99
20710;BME280;10516;51.518;9.864;2023-01-25T08:38:21;100524.66;;;-0.06;86.99
20710;BME280;10516;51.518;9.864;2023-01-25T08:40:46;100526.94;;;0.82;86.94
20710;BME280;10516;51.518;9.864;2023-01-25T08:43:11;100523.72;;;0.60;86.17
20710;BME280;10516;51.518;9.864;2023-01-25T08:45:37;100509.13;;;0.39;87.25
20710;BME280;10516;51.518;9.864;2023-01-25T08:48:02;100514.31;;;-0.17;87.69
20710;BME280;10516;51.518;9.864;2023-01-25T08:50:28;100511.97;;;-0.11;87.25
20710;BME280;10516;51.518;9.864;2023-01-25T08:52:53;100511.09;;;-0.78;91.28
20710;BME280;10516;51.518;9.864;2023-01-25T08:55:18;100513.22;;;-0.05;89.43
20710;BME280;10516;51.518;9.864;2023-01-25T08:57:44;100505.75;;;-0.67;89.61
20710;BME280;10516;51.518;9.864;2023-01-25T09:00:10;100504.34;;;0.15;89.06
20710;BME280;10516;51.518;9.864;2023-01-25T09:02:35;100506.19;;;-0.33;88.31
20710;BME280;10516;51.518;9.864;2023-01-25T09:05:01;100503.81;;;-0.46;89.46
20710;BME280;10516;51.518;9.864;2023-01-25T09:07:26;100483.25;;;-0.03;89.53
20710;BME280;10516;51.518;9.864;2023-01-25T09:09:51;100501.75;;;0.79;87.58
20710;BME280;10516;51.518;9.864;2023-01-25T09:12:17;100489.97;;;0.56;85.43
20710;BME280;10516;51.518;9.864;2023-01-25T09:14:42;100500.53;;;-0.29;88.34
20710;BME280;10516;51.518;9.864;2023-01-25T09:17:08;100497.28;;;0.16;89.01
20710;BME280;10516;51.518;9.864;2023-01-25T09:19:35;100505.03;;;0.17;88.07
20710;BME280;10516;51.518;9.864;2023-01-25T09:22:00;100502.53;;;0.25;87.51
20710;BME280;10516;51.518;9.864;2023-01-25T09:24:26;100491.97;;;-0.12;87.99
20710;BME280;10516;51.518;9.864;2023-01-25T09:26:51;100485.91;;;0.71;87.20
20710;BME280;10516;51.518;9.864;2023-01-25T09:29:17;100494.50;;;0.63;86.44
20710;BME280;10516;51.518;9.864;2023-01-25T09:31:42;100480.22;;;1.20;85.50
20710;BME280;10516;51.518;9.864;2023-01-25T09:34:09;100481.09;;;0.66;85.46
20710;BME280;10516;51.518;9.864;2023-01-25T09:36:36;100483.28;;;0.34;86.45
20710;BME280;10516;51.518;9.864;2023-01-25T09:39:01;100468.88;;;0.48;86.81
20710;BME280;10516;51.518;9.864;2023-01-25T09:46:49;100477.84;;;1.62;83.69
20710;BME280;10516;51.518;9.864;2023-01-25T09:52:01;100472.63;;;0.36;84.92
20710;BME280;10516;51.518;9.864;2023-01-25T09:54:28;100465.97;;;0.78;87.01
20710;BME280;10516;51.518;9.864;2023-01-25T09:56:56;100472.88;;;0.52;86.44
20710;BME280;10516;51.518;9.864;2023-01-25T09:59:24;100463.25;;;1.15;85.83
20710;BME280;10516;51.518;9.864;2023-01-25T10:06:46;100455.53;;;1.31;84.00
20710;BME280;10516;51.518;9.864;2023-01-25T10:12:03;100457.84;;;1.51;83.21
20710;BME280;10516;51.518;9.864;2023-01-25T10:14:29;100445.47;;;1.62;83.06
20710;BME280;10516;51.518;9.864;2023-01-25T10:19:57;100445.25;;;1.55;82.81
20710;BME280;10516;51.518;9.864;2023-01-25T10:22:29;100436.50;;;1.72;82.51
20710;BME280;10516;51.518;9.864;2023-01-25T10:30:20;100420.53;;;1.74;82.47
20710;BME280;10516;51.518;9.864;2023-01-25T10:32:49;100414.00;;;0.90;83.21
20710;BME280;10516;51.518;9.864;2023-01-25T10:35:20;100414.38;;;0.77;86.15
20710;BME280;10516;51.518;9.864;2023-01-25T10:37:48;100414.78;;;-0.19;87.17
20710;BME280;10516;51.518;9.864;2023-01-25T10:40:21;100412.81;;;0.30;88.39
20710;BME280;10516;51.518;9.864;2023-01-25T10:42:54;100407.06;;;0.44;88.22
20710;BME280;10516;51.518;9.864;2023-01-25T10:45:20;100384.81;;;1.10;86.27
20710;BME280;10516;51.518;9.864;2023-01-25T10:47:49;100390.34;;;1.42;83.99
20710;BME280;10516;51.518;9.864;2023-01-25T10:53:37;100390.88;;;1.64;83.17
20710;BME280;10516;51.518;9.864;2023-01-25T10:56:25;100380.91;;;1.75;83.21
20710;BME280;10516;51.518;9.864;2023-01-25T11:01:48;100370.91;;;1.79;82.90
20710;BME280;10516;51.518;9.864;2023-01-25T11:04:39;100371.94;;;1.42;82.45
20710;BME280;10516;51.518;9.864;2023-01-25T11:07:25;100358.03;;;1.50;83.53
20710;BME280;10516;51.518;9.864;2023-01-25T11:09:51;100362.38;;;1.59;82.61
20710;BME280;10516;51.518;9.864;2023-01-25T11:12:18;100345.84;;;1.49;83.52
20710;BME280;10516;51.518;9.864;2023-01-25T11:14:45;100340.81;;;1.56;83.17
20710;BME280;10516;51.518;9.864;2023-01-25T11:17:29;100344.31;;;1.64;83.21
20710;BME280;10516;51.518;9.864;2023-01-25T11:20:18;100332.56;;;1.50;83.72
20710;BME280;10516;51.518;9.864;2023-01-25T11:22:55;100309.13;;;1.65;82.70
20710;BME280;10516;51.518;9.864;2023-01-25T11:25:33;100312.06;;;1.36;83.94
20710;BME280;10516;51.518;9.864;2023-01-25T11:28:19;100301.28;;;1.47;83.83
20710;BME280;10516;51.518;9.864;2023-01-25T11:30:46;100312.44;;;1.67;83.72
20710;BME280;10516;51.518;9.864;2023-01-25T11:33:14;100313.19;;;1.85;82.68
20710;BME280;10516;51.518;9.864;2023-01-25T11:36:02;100294.88;;;1.42;83.82
20710;BME280;10516;51.518;9.864;2023-01-25T11:38:30;100297.16;;;1.19;84.22
20710;BME280;10516;51.518;9.864;2023-01-25T11:41:22;100295.56;;;1.52;83.65
20710;BME280;10516;51.518;9.864;2023-01-25T11:44:38;100292.44;;;1.82;82.86
20710;BME280;10516;51.518;9.864;2023-01-25T11:52:32;100269.88;;;1.80;82.93
20710;BME280;10516;51.518;9.864;2023-01-25T12:00:44;100260.97;;;1.73;83.50
20710;BME280;10516;51.518;9.864;2023-01-25T12:22:03;100224.94;;;2.23;81.98
20710;BME280;10516;51.518;9.864;2023-01-25T12:27:34;100207.38;;;1.82;81.84
20710;BME280;10516;51.518;9.864;2023-01-25T12:33:02;100202.78;;;1.84;82.47
20710;BME280;10516;51.518;9.864;2023-01-25T12:35:36;100185.09;;;1.60;83.40
20710;BME280;10516;51.518;9.864;2023-01-25T12:38:08;100184.41;;;2.00;82.52
20710;BME280;10516;51.518;9.864;2023-01-25T12:40:46;100192.91;;;1.86;81.55
20710;BME280;10516;51.518;9.864;2023-01-25T12:43:17;100178.66;;;1.21;83.33
20710;BME280;10516;51.518;9.864;2023-01-25T12:45:45;100171.59;;;0.70;85.10
20710;BME280;10516;51.518;9.864;2023-01-25T12:48:19;100174.00;;;1.82;83.97
20710;BME280;10516;51.518;9.864;2023-01-25T12:50:56;100165.31;;;1.98;82.74
20710;BME280;10516;51.518;9.864;2023-01-25T12:53:41;100169.44;;;2.00;82.62
20710;BME280;10516;51.518;9.864;2023-01-25T12:56:24;100152.84;;;2.08;82.10
20710;BME280;10516;51.518;9.864;2023-01-25T12:59:02;100150.00;;;1.93;82.32
20710;BME280;10516;51.518;9.864;2023-01-25T13:01:43;100115.63;;;1.87;81.60
20710;BME280;10516;51.518;9.864;2023-01-25T13:05:13;100139.66;;;2.00;81.84
20710;BME280;10516;51.518;9.864;2023-01-25T13:09:58;100124.41;;;0.86;84.22
20710;BME280;10516;51.518;9.864;2023-01-25T13:12:26;100123.25;;;1.14;84.97
20710;BME280;10516;51.518;9.864;2023-01-25T13:14:51;100113.97;;;1.36;85.47
20710;BME280;10516;51.518;9.864;2023-01-25T13:19:50;100108.25;;;1.98;82.84
20710;BME280;10516;51.518;9.864;2023-01-25T13:27:40;100100.97;;;1.92;82.25
20710;BME280;10516;51.518;9.864;2023-01-25T13:40:42;100079.44;;;1.89;81.68
20710;BME280;10516;51.518;9.864;2023-01-25T13:45:38;100073.47;;;1.71;82.76
20710;BME280;10516;51.518;9.864;2023-01-25T13:50:34;100070.84;;;1.71;83.13
20710;BME280;10516;51.518;9.864;2023-01-25T13:55:43;100066.22;;;1.65;83.79
20710;BME280;10516;51.518;9.864;2023-01-25T14:03:44;100051.09;;;1.59;83.79
20710;BME280;10516;51.518;9.864;2023-01-25T14:06:26;100057.44;;;1.32;83.68
20710;BME280;10516;51.518;9.864;2023-01-25T14:08:53;100037.81;;;1.18;83.23
20710;BME280;10516;51.518;9.864;2023-01-25T14:11:25;100053.59;;;1.76;83.49
20710;BME280;10516;51.518;9.864;2023-01-25T14:16:20;100049.94;;;1.61;82.81
20710;BME280;10516;51.518;9.864;2023-01-25T14:18:45;100045.00;;;1.00;83.51
20710;BME280;10516;51.518;9.864;2023-01-25T14:21:18;100037.53;;;0.54;83.93
20710;BME280;10516;51.518;9.864;2023-01-25T14:23:44;100038.47;;;0.45;84.81
20710;BME280;10516;51.518;9.864;2023-01-25T14:26:21;100033.66;;;0.66;85.40
20710;BME280;10516;51.518;9.864;2023-01-25T14:28:51;100027.22;;;0.60;85.42
20710;BME280;10516;51.518;9.864;2023-01-25T14:31:20;100022.16;;;1.50;84.17
20710;BME280;10516;51.518;9.864;2023-01-25T14:33:46;100028.88;;;1.53;83.48
20710;BME280;10516;51.518;9.864;2023-01-25T14:36:19;100016.22;;;1.57;83.78
20710;BME280;10516;51.518;9.864;2023-01-25T14:38:45;100005.66;;;1.40;83.41
20710;BME280;10516;51.518;9.864;2023-01-25T14:41:20;100000.78;;;1.62;83.14
20710;BME280;10516;51.518;9.864;2023-01-25T14:43:48;100027.41;;;1.50;82.76
20710;BME280;10516;51.518;9.864;2023-01-25T14:46:34;100002.72;;;1.60;82.77
20710;BME280;10516;51.518;9.864;2023-01-25T14:52:02;100008.66;;;1.53;82.51
20710;BME280;10516;51.518;9.864;2023-01-25T14:54:42;100016.22;;;1.73;82.62
20710;BME280;10516;51.518;9.864;2023-01-25T14:57:37;100020.53;;;1.66;82.69
20710;BME280;10516;51.518;9.864;2023-01-25T15:00:18;100004.25;;;1.70;82.67
20710;BME280;10516;51.518;9.864;2023-01-25T15:02:56;100000.13;;;1.92;81.53
20710;BME280;10516;51.518;9.864;2023-01-25T15:05:25;100005.06;;;1.63;81.92